Weather at Potts Field

Public forecast

Using degrees Fahrenheit for public forecast. Weather courtesy of forecast.io.

Closest aviation weather report (METAR) to Potts Field

Closest report is John H Batten Airport, 10.6 nm (19.5 km) ESE. Retrieved 2021/06/25 03:22 UTC (27 minutes ago):

KRAC 250322Z AUTO 19005KT 4SM BR SCT002 SCT014 18/18 A2996 RMK AO2 T01830183

Closest aviation forecast (TAF) to Potts Field

Closest forecast is General Mitchell International Airport, 11.1 nm (20.6 km) NE. Retrieved 2021-06-25 00:46 UTC (3 hours ago):

TAF KMKE 242344Z 2500/2606 19012G21KT P6SM OVC009 FM250500 19007KT 6SM -SHRA BR VCTS OVC008CB FM250800 18007KT 4SM SHRA BR VCTS OVC005CB FM251600 28006KT P6SM OVC006 FM251900 34007KT P6SM OVC012 FM260400 15005KT 4SM BR OVC010